Airfield :
LOGIN :

Register | Disclaimer

   EN    FR    IT 

 










Legend :    VFR   Marginal VFR   IFR   Intensive IFR   Very Intensive IFR
Visi :
Ceiling :
>= 8 km
>= 3000ft
5 to 8 km
1000 to 3000 ft
1500m to 5 km
500 to 1000 ft
800 to 1500m
200 to 500 ft
< 800m
< 200 ft
Symbols :   Thunderstorms  Fog  Heavy snow  Heavy precipitations  Wind > 20 kt
SIGMETs :     Misc.  Thunderstorms  Icing  Turbulence  Mountain Waves  Volcanic Ashes







- Airport Elevation : 776 ft
- IATA code : RMS


ETAR - Ramstein Air Base

CURRENT METAR :
  • 211256Z AUTO 07005KT 9999 CLR 23/04 A3005 RMK AO2 SLP180 T02340038 $

EXPIRED METARs :
  • 211156Z AUTO 06008KT 9999 CLR 22/04 A3008 RMK AO2 SLP189 T02240035 10224 20047 57022 $
  • 211056Z AUTO 08008KT 9999 CLR 21/03 A3010 RMK AO2 SLP196 T02090031 $
  • 210956Z AUTO 06006KT 9999 CLR 19/03 A3012 RMK AO2 SLP202 T01930030 $

TAF TAF ETAR
Valid from the 21 at 10:00 until the 22 at 16:00 UTC


211021Z 2110/2216 VRB06KT 9999 SKC QNH3012INS
TEMPO 2110/2116 09010G15KT
BECMG 2115/2116 VRB06KT 9999 SKC QNH3003INS
BECMG 2206/2207 VRB06KT 9999 BKN060 QNH2993INS TX22/2113Z TN00/2202Z
No reported NOTAMs for that airfield.



MET'MAP, your aeronautical weather chart ! - Copyright ORBIFLY December 2007 - Disclaimer

ORBIFLY MET'MAP TEAM :

Programming & Development : Alexandra Zaïnal
Concept & Development : Baudouin d'Aumeries
Co-Development & Prog : Marc-Olivier Méhu
Technical & hardware support : Manuel Goepfert

Contact : metmap@orbifly.com




SOURCES & CREDITS :

   NOAA